createdAt,value
2022-10-08T00:01:08.063Z,14.55
2022-10-08T00:03:38.385Z,11.40
2022-10-08T00:06:15.230Z,13.82
2022-10-08T00:08:46.713Z,14.65
2022-10-08T00:11:25.029Z,12.15
2022-10-08T00:13:54.389Z,13.15
2022-10-08T00:16:24.129Z,14.25
2022-10-08T00:18:53.212Z,21.42
2022-10-08T00:21:30.065Z,11.98
2022-10-08T00:23:57.486Z,13.27
2022-10-08T00:26:26.573Z,13.35
2022-10-08T00:28:55.626Z,15.10
2022-10-08T00:31:25.720Z,12.48
2022-10-08T00:33:54.954Z,12.98
2022-10-08T00:36:23.414Z,19.35
2022-10-08T00:38:55.937Z,15.07
2022-10-08T00:41:25.935Z,15.50
2022-10-08T00:43:55.513Z,14.45
2022-10-08T00:46:40.962Z,14.25
2022-10-08T00:49:11.618Z,16.33
2022-10-08T00:51:42.649Z,14.27
2022-10-08T00:54:10.461Z,10.15
2022-10-08T00:56:38.881Z,10.85
2022-10-08T00:59:06.485Z,14.23
2022-10-08T01:01:33.903Z,15.15
2022-10-08T01:04:05.609Z,13.80
2022-10-08T01:07:11.505Z,11.45
2022-10-08T01:09:40.442Z,12.20
2022-10-08T01:12:31.459Z,13.70
2022-10-08T01:15:00.880Z,14.52
2022-10-08T01:17:50.986Z,12.40
2022-10-08T01:20:33.133Z,16.08
2022-10-08T01:23:05.476Z,15.43
2022-10-08T01:25:54.284Z,19.92
2022-10-08T01:28:23.077Z,16.83
2022-10-08T01:30:55.011Z,17.02
2022-10-08T01:33:27.141Z,15.30
2022-10-08T01:35:57.739Z,16.52
2022-10-08T01:38:27.813Z,18.58
2022-10-08T01:40:59.200Z,15.15
2022-10-08T01:43:30.257Z,19.95
2022-10-08T01:46:02.267Z,16.92
2022-10-08T01:48:34.097Z,13.77
2022-10-08T01:51:33.482Z,18.52
2022-10-08T01:54:03.747Z,14.85
2022-10-08T01:56:32.309Z,18.33
2022-10-08T01:59:07.181Z,21.40
2022-10-08T02:01:37.543Z,18.33
2022-10-08T02:04:23.327Z,18.27
2022-10-08T02:06:56.286Z,22.10
2022-10-08T02:09:25.957Z,17.70
2022-10-08T02:11:53.363Z,18.73
2022-10-08T02:14:25.903Z,14.50
2022-10-08T02:17:01.503Z,16.38
2022-10-08T02:19:48.272Z,16.38
2022-10-08T02:22:18.288Z,17.95
2022-10-08T02:24:53.732Z,18.55
2022-10-08T02:27:29.423Z,23.05
2022-10-08T02:30:16.796Z,18.08
2022-10-08T02:32:59.225Z,18.38
2022-10-08T02:35:53.696Z,16.20
2022-10-08T02:38:24.823Z,18.30
2022-10-08T02:40:53.292Z,18.42
2022-10-08T02:43:25.134Z,15.68
2022-10-08T02:45:59.628Z,23.33
2022-10-08T02:48:31.448Z,17.80
2022-10-08T02:51:02.306Z,17.63
2022-10-08T02:53:29.916Z,19.63
2022-10-08T02:56:04.853Z,15.65
2022-10-08T02:58:32.082Z,17.88
2022-10-08T03:01:19.724Z,21.65
2022-10-08T03:03:49.532Z,21.25
2022-10-08T03:06:18.588Z,19.25
2022-10-08T03:08:49.185Z,16.85
2022-10-08T03:11:16.811Z,19.42
2022-10-08T03:13:46.918Z,19.85
2022-10-08T03:16:16.362Z,17.83
2022-10-08T03:18:44.419Z,16.85
2022-10-08T03:21:13.303Z,22.58
2022-10-08T03:23:40.323Z,19.75
2022-10-08T03:26:07.561Z,18.05
2022-10-08T03:28:34.562Z,18.58
2022-10-08T03:31:06.018Z,22.13
2022-10-08T03:33:33.801Z,20.38
2022-10-08T03:36:00.830Z,21.55
2022-10-08T03:38:27.736Z,20.92
2022-10-08T03:40:56.920Z,18.48
2022-10-08T03:43:24.021Z,23.88
2022-10-08T03:45:52.287Z,18.02
2022-10-08T03:48:21.180Z,19.77
2022-10-08T03:50:56.518Z,19.42
2022-10-08T03:53:24.296Z,26.25
2022-10-08T03:55:51.307Z,20.83
2022-10-08T03:58:18.319Z,18.02
2022-10-08T04:00:56.360Z,20.95
2022-10-08T04:03:23.286Z,20.40
2022-10-08T04:05:50.553Z,20.88
2022-10-08T04:08:17.624Z,18.55
2022-10-08T04:10:44.401Z,19.95
2022-10-08T04:13:11.486Z,17.58
2022-10-08T04:15:38.326Z,20.52
2022-10-08T04:18:06.765Z,16.52
2022-10-08T04:20:34.293Z,20.40
2022-10-08T04:23:01.147Z,19.75
2022-10-08T04:25:27.957Z,17.00
2022-10-08T04:27:54.950Z,17.90
2022-10-08T04:30:21.788Z,18.35
2022-10-08T04:32:48.931Z,19.50
2022-10-08T04:35:16.540Z,19.38
2022-10-08T04:37:43.382Z,19.45
2022-10-08T04:40:10.488Z,18.08
2022-10-08T04:42:37.554Z,24.40
2022-10-08T04:45:04.629Z,17.98
2022-10-08T04:47:31.452Z,20.02
2022-10-08T04:49:58.511Z,17.25
2022-10-08T04:52:25.393Z,17.90
2022-10-08T04:54:52.282Z,18.38
2022-10-08T04:57:19.260Z,19.05
2022-10-08T05:00:06.139Z,17.73
2022-10-08T05:02:33.930Z,20.05
2022-10-08T05:05:00.765Z,22.58
2022-10-08T05:07:29.372Z,18.45
2022-10-08T05:09:56.412Z,17.38
2022-10-08T05:12:23.192Z,17.10
2022-10-08T05:14:50.025Z,20.75
2022-10-08T05:17:17.312Z,16.88
2022-10-08T05:19:44.154Z,22.30
2022-10-08T05:22:10.945Z,19.52
2022-10-08T05:24:38.032Z,22.65
2022-10-08T05:27:04.914Z,17.73
2022-10-08T05:29:31.887Z,19.20
2022-10-08T05:31:59.249Z,19.38
2022-10-08T05:34:26.229Z,21.55
2022-10-08T05:36:53.093Z,19.05
2022-10-08T05:39:20.193Z,18.20
2022-10-08T05:41:47.035Z,20.67
2022-10-08T05:44:14.081Z,22.83
2022-10-08T05:46:41.259Z,22.73
2022-10-08T05:49:09.284Z,18.48
2022-10-08T05:51:38.493Z,20.48
2022-10-08T05:54:05.856Z,19.17
2022-10-08T05:56:32.743Z,20.02
2022-10-08T05:58:59.627Z,17.45
2022-10-08T06:01:31.561Z,18.92
2022-10-08T06:04:08.519Z,17.35
2022-10-08T06:06:37.127Z,20.10
2022-10-08T06:09:05.036Z,20.13
2022-10-08T06:11:35.091Z,21.40
2022-10-08T06:14:02.683Z,17.17
2022-10-08T06:16:30.239Z,18.48
2022-10-08T06:18:57.738Z,19.42
2022-10-08T06:21:26.648Z,18.20
2022-10-08T06:23:55.385Z,18.10
2022-10-08T06:26:23.542Z,24.27
2022-10-08T06:28:50.923Z,16.83
2022-10-08T06:31:18.670Z,17.33
2022-10-08T06:33:45.843Z,21.98
2022-10-08T06:36:24.521Z,21.25
2022-10-08T06:38:56.831Z,18.30
2022-10-08T06:41:24.569Z,23.48
2022-10-08T06:43:51.625Z,16.20
2022-10-08T06:46:19.198Z,20.67
2022-10-08T06:48:46.863Z,20.13
2022-10-08T06:51:15.787Z,17.88
2022-10-08T06:53:43.610Z,21.67
2022-10-08T06:56:14.823Z,19.70
2022-10-08T06:58:43.753Z,20.50
2022-10-08T07:01:20.900Z,18.73
2022-10-08T07:03:52.520Z,21.13
2022-10-08T07:06:19.789Z,18.98
2022-10-08T07:08:47.492Z,19.35
2022-10-08T07:11:16.620Z,16.98
2022-10-08T07:13:44.544Z,20.75
2022-10-08T07:16:19.716Z,19.30
2022-10-08T07:18:49.655Z,19.10
2022-10-08T07:21:17.948Z,21.95
2022-10-08T07:23:45.428Z,23.27
2022-10-08T07:26:17.897Z,19.23
2022-10-08T07:28:53.351Z,22.33
2022-10-08T07:31:22.626Z,18.02
2022-10-08T07:33:49.846Z,19.60
2022-10-08T07:36:22.099Z,20.65
2022-10-08T07:38:54.385Z,25.02
2022-10-08T07:41:21.235Z,18.85
2022-10-08T07:43:52.622Z,19.80
2022-10-08T07:46:20.275Z,22.27
2022-10-08T07:48:47.267Z,21.08
2022-10-08T07:51:19.387Z,22.70
2022-10-08T07:53:47.012Z,19.92
2022-10-08T07:56:15.664Z,23.70
2022-10-08T07:58:42.916Z,24.63
2022-10-08T08:01:16.573Z,22.30
2022-10-08T08:03:43.907Z,23.80
2022-10-08T08:06:13.303Z,22.20
2022-10-08T08:08:42.309Z,19.17
2022-10-08T08:11:11.018Z,23.58
2022-10-08T08:13:39.735Z,20.17
2022-10-08T08:16:09.533Z,24.33
2022-10-08T08:18:41.185Z,23.45
2022-10-08T08:21:11.105Z,20.92
2022-10-08T08:23:44.184Z,27.13
2022-10-08T08:26:17.352Z,20.85
2022-10-08T08:28:44.641Z,23.23
2022-10-08T08:31:17.704Z,19.02
2022-10-08T08:33:50.074Z,20.60
2022-10-08T08:36:24.707Z,20.60
2022-10-08T08:38:51.484Z,24.75
2022-10-08T08:41:33.513Z,21.80
2022-10-08T08:44:02.338Z,22.13
2022-10-08T08:46:36.475Z,23.23
2022-10-08T08:49:19.272Z,21.65
2022-10-08T08:51:46.479Z,22.85
2022-10-08T08:54:13.325Z,20.05
2022-10-08T08:56:40.536Z,19.08
2022-10-08T08:59:27.385Z,23.60
2022-10-08T09:01:57.463Z,15.85
2022-10-08T09:05:01.504Z,21.05
2022-10-08T09:07:36.651Z,18.00
2022-10-08T09:10:09.394Z,20.05
2022-10-08T09:12:43.811Z,17.25
2022-10-08T09:15:20.295Z,17.00
2022-10-08T09:17:51.758Z,17.48
2022-10-08T09:20:21.933Z,19.52
2022-10-08T09:22:50.783Z,17.05
2022-10-08T09:25:21.019Z,15.43
2022-10-08T09:27:56.874Z,16.45
2022-10-08T09:30:41.187Z,20.55
2022-10-08T09:33:20.617Z,15.57
2022-10-08T09:35:51.908Z,15.55
2022-10-08T09:38:26.971Z,21.92
2022-10-08T09:41:07.459Z,19.98
2022-10-08T09:44:13.973Z,16.40
2022-10-08T09:46:41.355Z,20.58
2022-10-08T09:49:36.236Z,15.48
2022-10-08T09:52:20.203Z,16.67
2022-10-08T09:55:07.263Z,17.60
2022-10-08T09:57:43.882Z,15.75
2022-10-08T10:00:26.723Z,16.17
2022-10-08T10:02:55.611Z,16.60
2022-10-08T10:05:31.023Z,19.33
2022-10-08T10:07:58.112Z,15.70
2022-10-08T10:10:35.335Z,15.43
2022-10-08T10:13:21.602Z,17.02
2022-10-08T10:16:10.848Z,13.88
2022-10-08T10:18:53.294Z,14.35
2022-10-08T10:21:27.485Z,15.63
2022-10-08T10:24:13.062Z,15.13
2022-10-08T10:26:42.259Z,18.38
2022-10-08T10:29:14.383Z,22.60
2022-10-08T10:31:59.770Z,16.25
2022-10-08T10:34:33.088Z,29.38
2022-10-08T10:37:02.190Z,22.58
2022-10-08T10:39:38.609Z,15.40
2022-10-08T10:42:21.344Z,13.55
2022-10-08T10:44:58.836Z,16.08
2022-10-08T10:47:32.207Z,24.65
2022-10-08T10:50:03.065Z,14.57
2022-10-08T10:52:45.875Z,72.68
2022-10-08T10:55:22.527Z,14.95
2022-10-08T10:58:34.312Z,13.07
2022-10-08T11:01:27.351Z,14.38
2022-10-08T11:04:28.309Z,213.38
2022-10-08T11:07:13.545Z,61.13
2022-10-08T11:10:29.916Z,19.65
2022-10-08T11:13:17.939Z,24.30
2022-10-08T11:15:52.816Z,36.67
2022-10-08T11:18:32.590Z,93.00
2022-10-08T11:21:21.424Z,25.65
2022-10-08T11:24:09.375Z,14.05
2022-10-08T11:26:48.190Z,12.02
2022-10-08T11:29:58.116Z,13.50
2022-10-08T11:32:26.960Z,17.73
2022-10-08T11:34:57.341Z,15.45
2022-10-08T11:37:35.129Z,12.10
2022-10-08T11:40:14.485Z,15.90
2022-10-08T11:42:50.962Z,16.38
2022-10-08T11:45:24.054Z,12.90
2022-10-08T11:47:54.355Z,10.27
2022-10-08T11:50:41.016Z,10.57
2022-10-08T11:53:10.870Z,10.25
2022-10-08T11:55:38.495Z,9.80
2022-10-08T11:58:15.509Z,11.80
2022-10-08T12:00:45.317Z,13.93
2022-10-08T12:03:22.490Z,23.38
2022-10-08T12:05:53.252Z,14.70
2022-10-08T12:08:54.307Z,18.13
2022-10-08T12:11:35.429Z,16.63
2022-10-08T12:14:11.081Z,12.13
2022-10-08T12:16:47.235Z,10.73
2022-10-08T12:19:32.577Z,14.20
2022-10-08T12:22:15.458Z,12.60
2022-10-08T12:24:49.668Z,12.57
2022-10-08T12:27:17.764Z,16.83
2022-10-08T12:30:14.349Z,18.48
2022-10-08T12:32:41.380Z,15.02
2022-10-08T12:35:34.155Z,14.75
2022-10-08T12:38:15.939Z,15.70
2022-10-08T12:40:49.106Z,14.23
2022-10-08T12:43:26.287Z,15.73
2022-10-08T12:46:23.840Z,15.43
2022-10-08T12:48:54.662Z,13.88
2022-10-08T12:51:36.573Z,18.25
2022-10-08T12:54:04.611Z,13.85
2022-10-08T12:56:31.783Z,14.63
2022-10-08T12:59:01.344Z,20.27
2022-10-08T13:01:28.633Z,21.23
2022-10-08T13:04:19.010Z,19.38
2022-10-08T13:06:47.633Z,23.55
2022-10-08T13:09:35.439Z,13.75
2022-10-08T13:12:05.872Z,17.38
2022-10-08T13:14:35.365Z,36.53
2022-10-08T13:17:02.723Z,20.33
2022-10-08T13:19:38.268Z,90.18
2022-10-08T13:22:08.745Z,42.92
2022-10-08T13:24:42.262Z,21.17
2022-10-08T13:27:41.272Z,17.75
2022-10-08T13:30:28.686Z,23.05
2022-10-08T13:33:21.813Z,13.40
2022-10-08T13:36:02.276Z,14.43
2022-10-08T13:38:33.979Z,17.48
2022-10-08T13:41:08.640Z,13.13
2022-10-08T13:43:36.624Z,15.55
2022-10-08T13:46:03.824Z,22.98
2022-10-08T13:48:30.824Z,18.88
2022-10-08T13:50:58.583Z,13.75
2022-10-08T13:53:26.320Z,13.90
2022-10-08T13:55:53.102Z,22.30
2022-10-08T13:58:20.621Z,19.50
2022-10-08T14:00:48.213Z,15.80
2022-10-08T14:03:15.840Z,18.88
2022-10-08T14:05:47.342Z,18.70
2022-10-08T14:08:21.026Z,15.18
2022-10-08T14:10:48.046Z,19.95
2022-10-08T14:13:16.045Z,23.85
2022-10-08T14:15:43.080Z,15.73
2022-10-08T14:18:09.859Z,14.15
2022-10-08T14:20:37.474Z,21.17
2022-10-08T14:23:04.411Z,20.38
2022-10-08T14:25:31.916Z,22.05
2022-10-08T14:28:00.596Z,23.17
2022-10-08T14:30:27.628Z,33.13
2022-10-08T14:32:55.589Z,51.20
2022-10-08T14:35:23.232Z,30.85
2022-10-08T14:37:50.438Z,23.55
2022-10-08T14:40:20.632Z,20.65
2022-10-08T14:42:48.068Z,21.75
2022-10-08T14:45:15.318Z,17.70
2022-10-08T14:47:42.301Z,20.23
2022-10-08T14:50:09.917Z,19.08
2022-10-08T14:52:40.487Z,17.85
2022-10-08T14:55:11.584Z,16.80
2022-10-08T14:57:38.418Z,19.90
2022-10-08T15:00:06.562Z,19.00
2022-10-08T15:02:34.505Z,20.35
2022-10-08T15:05:01.774Z,29.67
2022-10-08T15:07:29.088Z,46.80
2022-10-08T15:09:57.522Z,27.27
2022-10-08T15:12:24.364Z,30.05
2022-10-08T15:14:51.167Z,33.00
2022-10-08T15:17:18.583Z,26.77
2022-10-08T15:19:45.359Z,26.23
2022-10-08T15:22:12.851Z,31.95
2022-10-08T15:24:39.817Z,54.10
2022-10-08T15:27:06.659Z,91.75
2022-10-08T15:29:33.462Z,79.93
2022-10-08T15:32:00.624Z,82.53
2022-10-08T15:34:27.604Z,62.10
2022-10-08T15:36:55.602Z,59.05
2022-10-08T15:39:22.946Z,26.35
2022-10-08T15:41:52.016Z,37.33
2022-10-08T15:44:23.078Z,22.38
2022-10-08T15:46:59.299Z,23.65
2022-10-08T15:49:31.271Z,21.45
2022-10-08T15:51:58.479Z,21.20
2022-10-08T15:54:25.342Z,31.15
2022-10-08T15:56:52.195Z,33.95
2022-10-08T15:59:19.521Z,44.78
2022-10-08T16:01:46.372Z,38.53
2022-10-08T16:04:13.916Z,33.83
2022-10-08T16:06:47.312Z,108.88
2022-10-08T16:09:15.590Z,76.55
2022-10-08T16:11:43.227Z,37.83
2022-10-08T16:14:12.086Z,64.45
2022-10-08T16:16:39.535Z,75.20
2022-10-08T16:19:10.833Z,54.53
2022-10-08T16:21:38.103Z,27.60
2022-10-08T16:24:05.600Z,33.63
2022-10-08T16:26:33.857Z,43.60
2022-10-08T16:29:03.034Z,45.63
2022-10-08T16:31:31.278Z,49.70
2022-10-08T16:34:03.602Z,51.25
2022-10-08T16:36:31.910Z,67.50
2022-10-08T16:38:59.230Z,73.32
2022-10-08T16:41:28.251Z,52.35
2022-10-08T16:43:57.568Z,215.80
2022-10-08T16:46:29.815Z,106.70
2022-10-08T16:49:03.353Z,91.85
2022-10-08T16:51:33.134Z,510.23
2022-10-08T16:54:00.612Z,301.15
2022-10-08T16:56:30.955Z,145.65
2022-10-08T16:59:00.282Z,176.82
2022-10-08T17:01:27.849Z,720.28
2022-10-08T17:03:55.166Z,274.55
2022-10-08T17:06:23.494Z,183.73
2022-10-08T17:08:51.236Z,708.28
2022-10-08T17:11:18.934Z,481.85
2022-10-08T17:13:48.699Z,175.80
2022-10-08T17:16:17.298Z,57.97
2022-10-08T17:18:44.424Z,69.78
2022-10-08T17:21:14.779Z,95.53
2022-10-08T17:23:41.862Z,165.63
2022-10-08T17:26:14.269Z,197.73
2022-10-08T17:28:43.843Z,287.35
2022-10-08T17:31:14.399Z,128.75
2022-10-08T17:33:42.205Z,69.72
2022-10-08T17:36:18.513Z,61.78
2022-10-08T17:38:47.123Z,62.25
2022-10-08T17:41:19.420Z,139.02
2022-10-08T17:43:47.348Z,211.10
2022-10-08T17:46:19.271Z,184.80
2022-10-08T17:48:46.698Z,214.90
2022-10-08T17:51:18.726Z,192.95
2022-10-08T17:53:51.741Z,175.63
2022-10-08T17:56:18.831Z,42.45
2022-10-08T17:58:45.613Z,49.22
2022-10-08T18:01:15.032Z,41.95
2022-10-08T18:03:43.616Z,46.17
2022-10-08T18:06:11.617Z,119.47
2022-10-08T18:08:38.575Z,39.83
2022-10-08T18:11:07.848Z,55.13
2022-10-08T18:13:35.605Z,45.70
2022-10-08T18:16:12.086Z,66.25
2022-10-08T18:18:39.609Z,63.53
2022-10-08T18:21:07.633Z,52.40
2022-10-08T18:23:35.959Z,46.30
2022-10-08T18:26:24.379Z,48.95
2022-10-08T18:28:56.932Z,44.10
2022-10-08T18:31:31.648Z,33.78
2022-10-08T18:34:01.595Z,34.85
2022-10-08T18:36:30.928Z,31.55
2022-10-08T18:38:59.823Z,32.50
2022-10-08T18:41:36.104Z,36.80
2022-10-08T18:44:06.024Z,32.22
2022-10-08T18:46:36.466Z,37.20
2022-10-08T18:49:04.279Z,34.63
2022-10-08T18:51:33.243Z,33.90
2022-10-08T18:54:02.139Z,33.85
2022-10-08T18:56:35.532Z,34.47
2022-10-08T18:59:06.277Z,31.80
2022-10-08T19:01:35.599Z,31.20
2022-10-08T19:04:05.048Z,32.38
2022-10-08T19:06:35.104Z,32.38
2022-10-08T19:09:03.346Z,30.10
2022-10-08T19:11:33.762Z,30.27
2022-10-08T19:14:01.356Z,32.03
2022-10-08T19:16:28.690Z,34.33
2022-10-08T19:19:04.002Z,32.10
2022-10-08T19:21:32.735Z,31.67
2022-10-08T19:24:00.820Z,34.47
2022-10-08T19:26:30.431Z,29.85
2022-10-08T19:28:58.184Z,34.47
2022-10-08T19:31:27.946Z,30.58
2022-10-08T19:33:57.326Z,32.05
2022-10-08T19:36:25.405Z,29.38
2022-10-08T19:38:53.087Z,32.30
2022-10-08T19:41:20.704Z,29.88
2022-10-08T19:43:47.787Z,35.97
2022-10-08T19:46:14.740Z,30.85
2022-10-08T19:48:41.603Z,30.42
2022-10-08T19:51:11.532Z,29.90
2022-10-08T19:53:38.762Z,35.08
2022-10-08T19:56:08.400Z,34.38
2022-10-08T19:58:39.932Z,33.15
2022-10-08T20:01:18.586Z,37.78
2022-10-08T20:03:45.658Z,35.05
2022-10-08T20:06:20.351Z,37.08
2022-10-08T20:08:52.876Z,37.25
2022-10-08T20:11:19.918Z,37.08
2022-10-08T20:13:50.175Z,32.05
2022-10-08T20:16:26.604Z,37.55
2022-10-08T20:18:56.274Z,34.35
2022-10-08T20:21:23.254Z,35.88
2022-10-08T20:23:50.216Z,34.30
2022-10-08T20:26:24.250Z,37.80
2022-10-08T20:28:57.890Z,36.75
2022-10-08T20:31:31.161Z,41.40
2022-10-08T20:34:02.802Z,38.67
2022-10-08T20:36:31.231Z,38.83
2022-10-08T20:38:58.135Z,36.38
2022-10-08T20:41:30.449Z,37.08
2022-10-08T20:44:03.051Z,36.47
2022-10-08T20:46:32.199Z,38.03
2022-10-08T20:48:59.791Z,38.33
2022-10-08T20:51:27.916Z,34.55
2022-10-08T20:54:04.208Z,35.63
2022-10-08T20:56:37.108Z,44.28
2022-10-08T20:59:07.383Z,39.42
2022-10-08T21:01:37.799Z,35.05
2022-10-08T21:04:05.672Z,43.03
2022-10-08T21:06:44.060Z,36.55
2022-10-08T21:09:12.082Z,39.88
2022-10-08T21:11:39.677Z,38.47
2022-10-08T21:14:07.594Z,33.72
2022-10-08T21:16:37.905Z,44.72
2022-10-08T21:19:08.013Z,37.30
2022-10-08T21:21:35.098Z,32.30
2022-10-08T21:24:02.153Z,33.53
2022-10-08T21:26:34.498Z,31.02
2022-10-08T21:29:03.659Z,33.97
2022-10-08T21:31:32.386Z,34.85
2022-10-08T21:33:59.987Z,28.38
2022-10-08T21:36:29.711Z,32.45
2022-10-08T21:38:58.448Z,24.17
2022-10-08T21:41:25.663Z,20.70
2022-10-08T21:43:54.329Z,29.23
2022-10-08T21:46:24.563Z,19.55
2022-10-08T21:48:58.795Z,22.52
2022-10-08T21:51:26.758Z,22.63
2022-10-08T21:53:55.694Z,25.45
2022-10-08T21:56:25.089Z,31.80
2022-10-08T21:58:54.633Z,28.20
2022-10-08T22:01:36.504Z,28.42
2022-10-08T22:04:07.039Z,25.88
2022-10-08T22:06:37.301Z,26.42
2022-10-08T22:09:10.680Z,28.05
2022-10-08T22:11:37.912Z,30.35
2022-10-08T22:14:05.155Z,29.60
2022-10-08T22:16:32.069Z,26.67
2022-10-08T22:18:59.127Z,26.77
2022-10-08T22:21:26.303Z,28.67
2022-10-08T22:23:53.695Z,26.92
2022-10-08T22:26:24.070Z,31.08
2022-10-08T22:28:51.158Z,26.73
2022-10-08T22:31:19.399Z,32.40
2022-10-08T22:33:46.530Z,27.17
2022-10-08T22:36:16.623Z,30.25
2022-10-08T22:38:44.667Z,31.17
2022-10-08T22:41:23.152Z,33.17
2022-10-08T22:43:50.673Z,29.05
2022-10-08T22:46:22.444Z,29.55
2022-10-08T22:48:49.307Z,31.67
2022-10-08T22:51:21.561Z,33.97
2022-10-08T22:53:49.182Z,30.05
2022-10-08T22:56:18.961Z,31.20
2022-10-08T22:58:46.908Z,31.42
2022-10-08T23:01:17.202Z,32.88
2022-10-08T23:03:44.190Z,33.55
2022-10-08T23:06:28.700Z,30.80
2022-10-08T23:08:57.757Z,28.70
2022-10-08T23:11:25.662Z,30.60
2022-10-08T23:13:54.337Z,27.70
2022-10-08T23:16:21.364Z,25.52
2022-10-08T23:18:56.497Z,24.45
2022-10-08T23:21:23.855Z,24.77
2022-10-08T23:23:51.315Z,24.58
2022-10-08T23:26:18.375Z,27.63
2022-10-08T23:28:50.003Z,24.50
2022-10-08T23:31:18.801Z,27.20
2022-10-08T23:33:48.287Z,27.50
2022-10-08T23:36:17.898Z,25.17
2022-10-08T23:38:45.245Z,28.02
2022-10-08T23:41:12.532Z,28.08
2022-10-08T23:43:41.651Z,25.77
2022-10-08T23:46:11.070Z,25.38
2022-10-08T23:48:38.848Z,29.90
2022-10-08T23:51:06.256Z,27.38
2022-10-08T23:53:34.292Z,26.52
2022-10-08T23:56:01.121Z,22.48
2022-10-08T23:58:28.257Z,28.98
